Time;durP1;ratioP1;P1;durP2;ratioP2;P2;SDS_P1;SDS_P2;PMS_P1;PMS_P2;Temp;Humidity;BMP_temperature;BMP_pressure;BME280_temperature;BME280_humidity;BME280_pressure;Samples;Min_cycle;Max_cycle;Signal;HPM_P1;HPM_P2
2022/03/02 00:00:45;;;;;;;30.20;21.80;;;6.80;99.90;;;;;;5053596;28;20062;-60
2022/03/02 00:03:10;;;;;;;29.77;22.05;;;6.70;99.90;;;;;;5039662;28;20042;-59
2022/03/02 00:05:36;;;;;;;28.30;20.40;;;6.80;99.90;;;;;;5033733;28;20083;-59
2022/03/02 00:08:04;;;;;;;31.70;21.70;;;6.90;99.90;;;;;;5037611;28;20355;-59
2022/03/02 00:10:30;;;;;;;30.30;21.48;;;6.70;99.90;;;;;;5037368;28;20081;-59
2022/03/02 00:12:56;;;;;;;30.08;21.40;;;6.70;99.90;;;;;;5047868;28;20110;-60
2022/03/02 00:15:21;;;;;;;28.30;21.25;;;6.70;99.90;;;;;;5057306;28;20041;-60
2022/03/02 00:17:47;;;;;;;30.77;21.95;;;6.60;99.90;;;;;;5057057;28;20485;-59
2022/03/02 00:20:13;;;;;;;32.83;21.65;;;6.60;99.90;;;;;;5057124;28;20094;-60
2022/03/02 00:22:39;;;;;;;32.28;22.35;;;6.60;99.90;;;;;;5047830;28;20040;-59
2022/03/02 00:25:06;;;;;;;30.52;22.95;;;6.70;99.90;;;;;;5037047;28;20453;-62
2022/03/02 00:27:32;;;;;;;31.90;22.02;;;6.60;99.90;;;;;;5037206;28;20037;-59
2022/03/02 00:29:58;;;;;;;29.48;21.92;;;6.60;99.90;;;;;;5036780;28;20057;-59
2022/03/02 00:32:25;;;;;;;31.20;23.20;;;6.60;99.90;;;;;;5042894;28;20037;-59
2022/03/02 00:34:50;;;;;;;31.73;22.95;;;6.70;99.90;;;;;;5057005;28;20045;-59
2022/03/02 00:37:16;;;;;;;34.65;22.63;;;6.60;99.90;;;;;;5056920;28;20047;-59
2022/03/02 00:39:43;;;;;;;30.52;22.50;;;6.60;99.90;;;;;;5056692;28;20085;-60
2022/03/02 00:42:09;;;;;;;29.60;21.40;;;6.60;99.90;;;;;;5051694;28;20025;-60
2022/03/02 00:44:35;;;;;;;28.55;20.08;;;6.70;99.90;;;;;;5036975;28;20358;-60
2022/03/02 00:47:02;;;;;;;35.35;22.33;;;6.80;99.90;;;;;;5036677;28;20060;-60
2022/03/02 00:49:28;;;;;;;30.15;22.10;;;6.80;99.90;;;;;;5036672;28;20060;-60
2022/03/02 00:51:55;;;;;;;34.00;22.00;;;6.80;99.90;;;;;;5038429;28;20045;-60
2022/03/02 00:54:21;;;;;;;31.73;22.25;;;6.80;99.90;;;;;;5056479;28;20044;-60
2022/03/02 00:56:46;;;;;;;31.15;21.67;;;6.80;99.90;;;;;;5056515;28;20045;-59
2022/03/02 00:59:12;;;;;;;31.65;22.27;;;6.80;99.90;;;;;;5056430;28;20037;-60
2022/03/02 01:01:38;;;;;;;29.83;21.90;;;6.70;99.90;;;;;;5055288;28;20036;-60
2022/03/02 01:04:03;;;;;;;28.65;20.80;;;6.70;99.90;;;;;;5036405;28;20037;-60
2022/03/02 01:06:29;;;;;;;29.33;22.50;;;6.70;99.90;;;;;;5036447;28;20041;-59
2022/03/02 01:08:55;;;;;;;30.15;21.95;;;6.80;99.90;;;;;;5036019;28;20038;-60
2022/03/02 01:11:20;;;;;;;29.52;21.65;;;6.80;99.90;;;;;;5036008;28;20107;-60
2022/03/02 01:13:49;;;;;;;31.92;22.30;;;6.80;99.90;;;;;;5035781;28;20044;-60
2022/03/02 01:16:15;;;;;;;30.80;22.20;;;6.70;99.90;;;;;;5055627;28;20040;-59
2022/03/02 01:18:42;;;;;;;31.98;22.20;;;6.80;99.90;;;;;;5054892;28;20045;-60
2022/03/02 01:21:07;;;;;;;32.63;21.58;;;6.70;99.90;;;;;;5055655;28;20047;-60
2022/03/02 01:23:34;;;;;;;31.67;21.98;;;6.60;99.90;;;;;;5039744;28;20052;-59
2022/03/02 01:25:59;;;;;;;29.92;20.90;;;6.60;99.90;;;;;;5036107;28;20045;-60
2022/03/02 01:28:25;;;;;;;30.05;21.10;;;6.50;99.90;;;;;;5036030;28;20033;-60
2022/03/02 01:30:51;;;;;;;31.45;22.58;;;6.60;99.90;;;;;;5035186;28;20386;-59
2022/03/02 01:33:16;;;;;;;29.88;21.33;;;6.50;99.90;;;;;;5049032;28;20029;-60
2022/03/02 01:35:42;;;;;;;32.53;22.33;;;6.50;99.90;;;;;;5055803;28;20037;-59
2022/03/02 01:38:08;;;;;;;32.50;23.58;;;6.50;99.90;;;;;;5055791;28;20481;-59
2022/03/02 01:40:34;;;;;;;32.47;23.15;;;6.50;99.90;;;;;;5055734;28;20454;-59
2022/03/02 01:43:00;;;;;;;29.77;22.75;;;6.50;99.90;;;;;;5043998;28;20049;-59
2022/03/02 01:45:25;;;;;;;32.28;23.50;;;6.50;99.90;;;;;;5035674;28;20118;-59
2022/03/02 01:47:51;;;;;;;32.65;23.42;;;6.50;99.90;;;;;;5017902;28;20045;-59
2022/03/02 01:50:17;;;;;;;31.48;22.45;;;6.50;99.90;;;;;;5035525;28;20549;-60
2022/03/02 01:52:44;;;;;;;31.73;21.80;;;6.50;99.90;;;;;;5043247;28;20458;-59
2022/03/02 01:55:11;;;;;;;30.73;21.13;;;6.60;99.90;;;;;;5055421;28;20089;-59
2022/03/02 01:57:37;;;;;;;32.83;22.05;;;6.50;99.90;;;;;;5037588;28;20098;-59
2022/03/02 02:00:07;;;;;;;34.55;23.80;;;6.50;99.90;;;;;;5055419;28;20040;-59
2022/03/02 02:02:33;;;;;;;34.70;22.42;;;6.50;99.90;;;;;;5029622;28;20111;-59
2022/03/02 02:04:59;;;;;;;31.45;21.60;;;6.50;99.90;;;;;;5034731;28;20045;-60
2022/03/02 02:07:26;;;;;;;32.15;23.10;;;6.50;99.90;;;;;;5017485;28;20132;-59
2022/03/02 02:09:52;;;;;;;35.38;23.52;;;6.50;99.90;;;;;;5035117;28;20072;-61
2022/03/02 02:12:18;;;;;;;31.42;23.95;;;6.40;99.90;;;;;;5022196;28;20087;-60
2022/03/02 02:14:44;;;;;;;31.63;23.40;;;6.40;99.90;;;;;;5054725;28;20445;-59
2022/03/02 02:17:10;;;;;;;34.15;23.73;;;6.40;99.90;;;;;;5037086;28;20120;-60
2022/03/02 02:19:36;;;;;;;35.58;23.70;;;6.40;99.90;;;;;;5054865;28;20120;-59
2022/03/02 02:22:01;;;;;;;29.88;21.85;;;6.40;99.90;;;;;;5034435;28;20120;-60
2022/03/02 02:24:27;;;;;;;29.30;21.65;;;6.40;99.90;;;;;;5034811;28;20029;-60
2022/03/02 02:26:54;;;;;;;31.90;23.42;;;6.40;99.90;;;;;;5034935;28;20037;-60
2022/03/02 02:29:22;;;;;;;30.95;23.25;;;6.40;99.90;;;;;;5034116;28;20084;-59
2022/03/02 02:31:48;;;;;;;32.08;22.58;;;6.30;99.90;;;;;;5034656;28;20339;-59
2022/03/02 02:34:15;;;;;;;33.40;23.08;;;6.30;99.90;;;;;;5054632;28;20052;-59
2022/03/02 02:36:42;;;;;;;31.17;22.50;;;6.30;99.90;;;;;;5037198;28;20045;-59
2022/03/02 02:39:09;;;;;;;32.05;23.67;;;6.40;99.90;;;;;;5037104;28;20041;-60
2022/03/02 02:41:35;;;;;;;33.25;23.42;;;6.40;99.90;;;;;;5054263;28;20158;-59
2022/03/02 02:44:01;;;;;;;34.60;24.58;;;6.50;99.90;;;;;;5035379;28;20470;-59
2022/03/02 02:46:26;;;;;;;32.75;22.08;;;6.40;99.90;;;;;;5034083;28;20378;-59
2022/03/02 02:48:52;;;;;;;31.67;22.40;;;6.40;99.90;;;;;;5034195;28;20120;-59
2022/03/02 02:51:18;;;;;;;32.17;22.23;;;6.40;99.90;;;;;;5034153;28;20076;-60
2022/03/02 02:53:43;;;;;;;33.33;23.55;;;6.30;99.90;;;;;;5050533;28;20139;-59
2022/03/02 02:56:09;;;;;;;31.55;22.48;;;6.40;99.90;;;;;;5054280;28;20118;-59
2022/03/02 02:58:35;;;;;;;34.33;23.83;;;6.30;99.90;;;;;;5054306;28;20047;-59
2022/03/02 03:01:00;;;;;;;35.10;23.63;;;6.30;99.90;;;;;;5019899;28;20576;-60
2022/03/02 03:03:26;;;;;;;32.00;23.08;;;6.30;99.90;;;;;;5039952;28;20045;-59
2022/03/02 03:05:52;;;;;;;35.60;24.05;;;6.30;99.90;;;;;;5033874;28;20041;-59
2022/03/02 03:08:18;;;;;;;32.58;23.00;;;6.30;99.90;;;;;;5034010;28;20451;-60
2022/03/02 03:10:45;;;;;;;32.63;22.80;;;6.40;99.90;;;;;;5033827;28;20049;-59
2022/03/02 03:13:11;;;;;;;32.53;23.50;;;6.40;99.90;;;;;;5045652;28;20419;-59
2022/03/02 03:15:38;;;;;;;34.40;23.50;;;6.40;99.90;;;;;;5053990;28;20049;-59
2022/03/02 03:18:04;;;;;;;33.83;22.40;;;6.50;99.90;;;;;;5054035;28;20044;-59
2022/03/02 03:20:31;;;;;;;31.77;23.33;;;6.50;99.90;;;;;;5053654;28;20454;-59
2022/03/02 03:22:57;;;;;;;33.72;22.77;;;6.40;99.90;;;;;;5025883;28;20052;-59
2022/03/02 03:25:24;;;;;;;35.47;23.70;;;6.40;99.90;;;;;;5034027;28;20033;-59
2022/03/02 03:27:51;;;;;;;34.40;22.92;;;6.50;99.90;;;;;;5033725;28;20053;-59
2022/03/02 03:30:19;;;;;;;31.25;23.05;;;6.30;99.90;;;;;;5033965;28;20042;-59
2022/03/02 03:32:45;;;;;;;34.25;23.55;;;6.30;99.90;;;;;;5041185;28;20037;-59
2022/03/02 03:35:13;;;;;;;35.30;23.35;;;6.10;99.90;;;;;;5053863;28;20047;-59
2022/03/02 03:37:40;;;;;;;32.50;21.70;;;6.20;99.90;;;;;;5053792;28;20041;-60
2022/03/02 03:40:07;;;;;;;34.13;23.60;;;6.30;99.90;;;;;;5055193;28;20354;-59
2022/03/02 03:42:33;;;;;;;32.72;22.27;;;6.20;99.90;;;;;;5051017;28;20052;-59
2022/03/02 03:44:59;;;;;;;36.70;24.20;;;6.30;99.90;;;;;;5037674;28;20029;-60
2022/03/02 03:47:24;;;;;;;35.08;22.63;;;6.20;99.90;;;;;;5037546;28;20076;-59
2022/03/02 03:49:50;;;;;;;36.80;24.20;;;6.10;99.90;;;;;;5037776;28;20056;-59
2022/03/02 03:52:16;;;;;;;35.38;23.52;;;6.10;99.90;;;;;;5041065;28;20041;-59
2022/03/02 03:54:41;;;;;;;36.45;23.38;;;6.10;99.90;;;;;;5057300;28;20037;-60
2022/03/02 03:57:07;;;;;;;35.58;23.63;;;6.10;99.90;;;;;;5057623;28;20040;-60
2022/03/02 03:59:33;;;;;;;31.83;23.60;;;6.10;99.90;;;;;;5057664;28;20063;-59
2022/03/02 04:01:59;;;;;;;32.95;23.42;;;6.20;99.90;;;;;;5055324;28;20051;-60
2022/03/02 04:04:25;;;;;;;32.08;22.52;;;6.10;99.90;;;;;;5037213;28;20049;-59
2022/03/02 04:06:51;;;;;;;33.35;22.25;;;6.20;99.90;;;;;;5037535;28;20128;-59
2022/03/02 04:09:18;;;;;;;33.83;23.45;;;6.20;99.90;;;;;;5037188;28;20130;-60
2022/03/02 04:11:44;;;;;;;35.53;23.75;;;6.20;99.90;;;;;;5036715;28;20546;-59
2022/03/02 04:14:10;;;;;;;33.63;23.80;;;6.20;99.90;;;;;;5056522;28;20115;-59
2022/03/02 04:16:36;;;;;;;35.28;23.45;;;6.10;99.90;;;;;;5057144;28;20037;-59
2022/03/02 04:19:04;;;;;;;36.13;24.38;;;6.10;99.90;;;;;;5057285;28;20159;-60
2022/03/02 04:21:30;;;;;;;34.13;24.48;;;6.10;99.90;;;;;;5056809;28;20045;-59
2022/03/02 04:23:56;;;;;;;33.33;23.10;;;6.10;99.90;;;;;;5039460;28;20033;-59
2022/03/02 04:26:22;;;;;;;33.08;23.50;;;6.10;99.90;;;;;;5037164;28;20389;-59
2022/03/02 04:28:48;;;;;;;35.70;24.65;;;6.00;99.90;;;;;;5037061;28;20045;-59
2022/03/02 04:31:13;;;;;;;34.65;24.20;;;6.10;99.90;;;;;;5036540;28;20041;-59
2022/03/02 04:33:39;;;;;;;34.25;25.10;;;6.00;99.90;;;;;;5051423;28;20454;-60
2022/03/02 04:36:05;;;;;;;37.28;25.13;;;5.90;99.90;;;;;;5039547;28;20098;-59
2022/03/02 04:38:31;;;;;;;31.80;23.83;;;6.00;99.90;;;;;;5056910;28;20048;-60
2022/03/02 04:40:57;;;;;;;34.50;24.65;;;5.90;99.90;;;;;;5056085;28;20560;-59
2022/03/02 04:43:23;;;;;;;34.17;23.75;;;6.00;99.90;;;;;;5026115;28;20116;-61
2022/03/02 04:45:49;;;;;;;36.47;24.85;;;6.10;99.90;;;;;;5036379;28;20103;-60
2022/03/02 04:48:15;;;;;;;36.13;25.08;;;6.00;99.90;;;;;;5036498;28;20034;-59
2022/03/02 04:50:41;;;;;;;38.53;25.70;;;5.90;99.90;;;;;;5036312;28;20045;-59
2022/03/02 04:53:07;;;;;;;36.60;25.27;;;5.90;99.90;;;;;;5045911;28;20041;-59
2022/03/02 04:55:32;;;;;;;35.60;24.10;;;5.90;99.90;;;;;;5056406;28;20045;-59
2022/03/02 04:58:00;;;;;;;37.75;24.83;;;5.90;99.90;;;;;;5056465;28;20051;-60
2022/03/02 05:00:29;;;;;;;35.55;23.67;;;5.90;99.90;;;;;;5056140;28;20118;-59
2022/03/02 05:02:55;;;;;;;33.90;25.00;;;5.90;99.90;;;;;;5047304;28;20037;-59
2022/03/02 05:05:23;;;;;;;40.78;24.77;;;5.80;99.90;;;;;;5035919;28;20061;-60
2022/03/02 05:07:49;;;;;;;36.92;25.17;;;5.70;99.90;;;;;;5036192;28;20041;-60
2022/03/02 05:10:18;;;;;;;35.00;23.45;;;5.80;99.90;;;;;;5035777;28;20132;-59
2022/03/02 05:12:44;;;;;;;36.25;25.63;;;5.80;99.90;;;;;;5042453;28;20048;-59
2022/03/02 05:15:11;;;;;;;36.90;26.15;;;5.80;99.90;;;;;;5038385;28;20130;-59
2022/03/02 05:17:37;;;;;;;35.70;24.30;;;5.80;99.90;;;;;;5056010;28;20466;-59
2022/03/02 05:20:04;;;;;;;36.50;24.50;;;5.70;99.90;;;;;;5055778;28;20496;-60
2022/03/02 05:22:30;;;;;;;36.80;25.67;;;5.70;99.90;;;;;;5050360;28;20454;-59
2022/03/02 05:24:56;;;;;;;35.72;25.15;;;5.70;99.90;;;;;;5035754;28;20045;-59
2022/03/02 05:27:21;;;;;;;34.10;24.48;;;5.50;99.90;;;;;;5035751;28;20076;-59
2022/03/02 05:29:47;;;;;;;37.28;25.42;;;5.60;99.90;;;;;;5035762;28;20103;-59
2022/03/02 05:32:12;;;;;;;38.05;26.70;;;5.70;99.90;;;;;;5037573;28;20389;-59
2022/03/02 05:34:38;;;;;;;35.63;25.10;;;5.60;99.90;;;;;;5055764;28;20090;-60
2022/03/02 05:37:04;;;;;;;38.08;25.35;;;5.60;99.90;;;;;;5038386;28;20048;-60
2022/03/02 05:39:30;;;;;;;37.53;25.60;;;5.50;99.90;;;;;;5055647;28;20446;-59
2022/03/02 05:41:55;;;;;;;37.83;26.67;;;5.40;99.90;;;;;;5054794;28;20124;-59
2022/03/02 05:44:21;;;;;;;37.42;26.35;;;5.30;99.90;;;;;;5035302;28;20056;-60
2022/03/02 05:46:47;;;;;;;38.50;26.90;;;5.30;99.90;;;;;;5035528;28;20086;-59
2022/03/02 05:49:13;;;;;;;38.55;26.52;;;5.40;99.90;;;;;;5035583;28;20037;-59
2022/03/02 05:51:39;;;;;;;38.20;26.00;;;5.30;99.90;;;;;;5035215;28;20045;-60
2022/03/02 05:54:05;;;;;;;42.00;25.85;;;5.30;99.90;;;;;;5053372;28;20369;-60
2022/03/02 05:56:32;;;;;;;35.75;25.52;;;5.30;99.90;;;;;;5031602;28;20065;-60
2022/03/02 05:58:58;;;;;;;41.28;26.90;;;5.20;99.90;;;;;;5014947;28;20448;-59
2022/03/02 06:01:24;;;;;;;38.63;26.58;;;5.20;99.90;;;;;;5015326;28;20510;-59
2022/03/02 06:03:50;;;;;;;38.58;26.30;;;5.20;99.90;;;;;;5017323;28;20057;-59
2022/03/02 06:06:16;;;;;;;42.60;27.80;;;5.10;99.90;;;;;;5019513;28;20090;-59
2022/03/02 06:08:42;;;;;;;40.20;26.45;;;5.00;99.90;;;;;;5014447;28;20049;-59
2022/03/02 06:11:08;;;;;;;39.33;25.40;;;5.10;99.90;;;;;;5019009;28;20108;-59
2022/03/02 06:13:34;;;;;;;40.63;27.45;;;5.10;99.90;;;;;;5022900;28;20168;-59
2022/03/02 06:16:01;;;;;;;41.05;27.38;;;5.10;99.90;;;;;;5030699;28;20116;-60
2022/03/02 06:18:27;;;;;;;37.95;26.58;;;5.00;99.90;;;;;;5017218;28;20499;-59
2022/03/02 06:20:59;;;;;;;38.58;26.65;;;5.00;99.90;;;;;;5027204;28;20026;-60
2022/03/02 06:23:25;;;;;;;39.15;26.55;;;5.00;99.90;;;;;;5018296;28;20587;-60
2022/03/02 06:25:51;;;;;;;42.05;28.02;;;4.90;99.90;;;;;;5021637;28;20063;-59
2022/03/02 06:28:17;;;;;;;38.40;28.05;;;4.90;99.90;;;;;;5034896;28;20060;-59
2022/03/02 06:30:43;;;;;;;38.90;25.40;;;4.80;99.90;;;;;;5034375;28;20093;-59
2022/03/02 06:33:13;;;;;;;39.47;27.10;;;4.80;99.90;;;;;;5038132;28;20370;-60
2022/03/02 06:35:39;;;;;;;41.92;26.77;;;4.80;99.90;;;;;;5029442;28;20416;-59
2022/03/02 06:38:05;;;;;;;40.78;27.42;;;4.80;99.90;;;;;;5014320;28;20158;-59
2022/03/02 06:40:30;;;;;;;42.63;27.95;;;4.80;99.90;;;;;;4996038;28;20462;-61
2022/03/02 06:43:08;;;;;;;41.60;27.52;;;4.70;99.90;;;;;;5024731;28;20051;-59
2022/03/02 06:45:54;;;;;;;39.55;27.70;;;4.70;99.90;;;;;;5034663;28;20037;-60
2022/03/02 06:48:20;;;;;;;43.00;28.27;;;4.80;99.90;;;;;;5034495;28;20176;-60
2022/03/02 06:50:52;;;;;;;41.28;28.70;;;4.70;99.90;;;;;;5032367;28;20068;-62
2022/03/02 06:53:22;;;;;;;46.33;29.55;;;4.70;99.90;;;;;;5034190;28;20037;-62
2022/03/02 06:55:48;;;;;;;40.70;28.08;;;4.70;99.90;;;;;;5034095;28;20046;-62
2022/03/02 06:58:16;;;;;;;40.28;26.70;;;4.70;99.90;;;;;;5032624;28;20521;-63
2022/03/02 07:00:51;;;;;;;40.17;27.27;;;4.80;99.90;;;;;;5033198;28;20049;-60
2022/03/02 07:03:21;;;;;;;45.33;29.33;;;4.80;99.90;;;;;;5020707;28;20136;-62
2022/03/02 07:05:50;;;;;;;41.40;25.42;;;4.80;99.90;;;;;;5012611;28;20074;-61
2022/03/02 07:08:17;;;;;;;40.28;27.80;;;4.90;99.90;;;;;;5012635;28;20474;-60
2022/03/02 07:10:42;;;;;;;43.15;28.92;;;4.80;99.90;;;;;;4995064;28;20058;-61
2022/03/02 07:13:09;;;;;;;36.35;26.63;;;4.90;99.90;;;;;;5015636;28;20053;-59
2022/03/02 07:15:35;;;;;;;40.15;27.83;;;4.80;99.90;;;;;;5012720;28;20026;-60
2022/03/02 07:18:03;;;;;;;41.80;28.48;;;4.90;99.90;;;;;;5011878;28;20099;-60
2022/03/02 07:20:29;;;;;;;40.33;27.20;;;4.80;99.90;;;;;;5025932;28;20034;-60
2022/03/02 07:23:00;;;;;;;40.58;27.60;;;4.80;99.90;;;;;;5013875;28;20596;-60
2022/03/02 07:25:29;;;;;;;39.42;26.48;;;4.90;99.90;;;;;;5013237;28;20048;-59
2022/03/02 07:27:56;;;;;;;40.15;28.30;;;4.90;99.90;;;;;;5014315;28;20037;-60
2022/03/02 07:30:23;;;;;;;43.70;29.65;;;5.00;99.90;;;;;;5031537;28;20079;-60
2022/03/02 07:32:53;;;;;;;40.35;28.13;;;5.00;99.90;;;;;;5034912;28;20069;-59
2022/03/02 07:35:19;;;;;;;41.80;29.50;;;5.00;99.90;;;;;;5033898;28;20061;-59
2022/03/02 07:37:45;;;;;;;40.58;28.45;;;5.00;99.90;;;;;;5033567;28;20073;-59
2022/03/02 07:40:12;;;;;;;42.75;27.75;;;5.00;99.90;;;;;;5033231;28;20044;-59
2022/03/02 07:42:37;;;;;;;39.67;26.00;;;5.10;99.90;;;;;;5038588;28;20045;-59
2022/03/02 07:45:04;;;;;;;42.28;27.17;;;5.10;99.90;;;;;;5053146;28;20365;-61
2022/03/02 07:47:30;;;;;;;42.08;28.45;;;5.10;99.90;;;;;;5033660;28;20033;-59
2022/03/02 07:49:56;;;;;;;40.05;28.77;;;5.10;99.90;;;;;;5033269;28;20123;-59
2022/03/02 07:52:27;;;;;;;37.78;26.30;;;5.20;99.90;;;;;;5036015;28;20088;-60
2022/03/02 07:54:57;;;;;;;39.90;27.67;;;5.20;99.90;;;;;;5053397;28;20369;-59
2022/03/02 07:57:24;;;;;;;41.70;26.98;;;5.30;99.90;;;;;;5053266;28;20472;-61
2022/03/02 07:59:51;;;;;;;37.85;26.13;;;5.20;99.90;;;;;;5053176;28;20041;-59
2022/03/02 08:02:19;;;;;;;37.88;23.75;;;5.30;99.90;;;;;;5052556;28;20171;-59
2022/03/02 08:04:51;;;;;;;38.70;26.00;;;5.40;99.90;;;;;;5052844;28;20492;-60
2022/03/02 08:07:17;;;;;;;39.47;27.10;;;5.40;99.90;;;;;;5053564;28;20037;-59
2022/03/02 08:09:44;;;;;;;38.72;27.17;;;5.40;99.90;;;;;;5052654;28;20037;-61
2022/03/02 08:12:11;;;;;;;42.15;26.70;;;5.50;99.90;;;;;;5052020;28;20037;-59
2022/03/02 08:14:37;;;;;;;40.58;27.35;;;5.40;99.90;;;;;;5033531;28;20052;-59
2022/03/02 08:17:03;;;;;;;38.15;26.67;;;5.40;99.90;;;;;;5033455;28;20045;-60
2022/03/02 08:19:33;;;;;;;43.13;28.02;;;5.50;99.90;;;;;;5032970;28;20045;-59
2022/03/02 08:22:04;;;;;;;40.25;26.60;;;5.60;99.90;;;;;;5033262;28;20046;-59
2022/03/02 08:24:31;;;;;;;42.55;27.25;;;5.50;99.90;;;;;;5052720;28;20370;-60
2022/03/02 08:27:02;;;;;;;38.80;25.05;;;5.50;99.90;;;;;;5054129;28;20060;-60
2022/03/02 08:29:31;;;;;;;41.67;27.85;;;5.70;99.90;;;;;;5056437;28;20160;-60
2022/03/02 08:32:03;;;;;;;40.60;26.83;;;5.60;99.90;;;;;;5056704;28;20060;-59
2022/03/02 08:34:30;;;;;;;39.53;28.30;;;5.60;99.90;;;;;;5056385;28;20049;-59
2022/03/02 08:36:56;;;;;;;36.20;25.92;;;5.70;99.90;;;;;;5050579;28;20126;-60
2022/03/02 08:39:23;;;;;;;37.40;25.70;;;5.80;99.90;;;;;;5018710;28;20042;-60
2022/03/02 08:41:49;;;;;;;35.83;24.27;;;5.90;99.90;;;;;;5036587;28;20037;-59
2022/03/02 08:44:15;;;;;;;36.75;23.67;;;5.90;99.90;;;;;;5036663;28;20095;-60
2022/03/02 08:46:45;;;;;;;36.15;24.27;;;5.90;99.90;;;;;;5056225;28;20033;-60
2022/03/02 08:49:12;;;;;;;35.08;22.58;;;6.00;99.90;;;;;;5054816;28;20381;-59
2022/03/02 08:51:39;;;;;;;38.85;23.13;;;6.10;99.90;;;;;;5020756;28;20049;-60
2022/03/02 08:54:05;;;;;;;36.25;24.58;;;6.10;99.90;;;;;;5050157;28;20041;-60
2022/03/02 08:56:37;;;;;;;36.45;23.48;;;6.20;99.90;;;;;;5056558;28;20037;-59
2022/03/02 08:59:03;;;;;;;36.13;23.08;;;6.20;99.90;;;;;;5056514;28;20099;-59
2022/03/02 09:01:30;;;;;;;36.00;23.25;;;6.30;99.90;;;;;;5038284;28;20116;-60
2022/03/02 09:03:59;;;;;;;35.08;22.20;;;6.30;99.90;;;;;;5040905;28;20041;-60
2022/03/02 09:06:30;;;;;;;32.17;21.38;;;6.40;99.90;;;;;;5036221;28;20049;-60
2022/03/02 09:08:56;;;;;;;35.53;21.65;;;6.50;99.90;;;;;;5035661;28;20489;-60
2022/03/02 09:11:21;;;;;;;34.03;21.73;;;6.50;99.90;;;;;;5035465;28;20046;-59
2022/03/02 09:13:49;;;;;;;34.10;22.77;;;6.50;99.90;;;;;;5049551;28;20362;-60
2022/03/02 09:16:15;;;;;;;32.70;21.15;;;6.50;99.90;;;;;;5055721;28;20037;-61
2022/03/02 09:18:41;;;;;;;31.63;21.70;;;6.60;99.90;;;;;;5035821;28;20366;-59
2022/03/02 09:21:08;;;;;;;34.13;23.05;;;6.60;99.90;;;;;;5035593;28;20041;-60
2022/03/02 09:23:41;;;;;;;36.85;22.80;;;6.50;99.90;;;;;;5047896;28;20040;-59
2022/03/02 09:26:13;;;;;;;34.20;21.83;;;6.40;99.90;;;;;;5055921;28;20037;-60
2022/03/02 09:28:41;;;;;;;32.33;20.95;;;6.40;99.90;;;;;;5055922;28;20117;-59
2022/03/02 09:31:09;;;;;;;33.45;22.27;;;6.30;99.90;;;;;;5037217;28;20056;-60
2022/03/02 09:33:35;;;;;;;34.13;23.08;;;6.30;99.90;;;;;;5043491;28;20045;-59
2022/03/02 09:36:09;;;;;;;33.58;21.45;;;6.20;99.90;;;;;;5035537;28;20041;-60
2022/03/02 09:38:38;;;;;;;32.90;20.30;;;6.10;99.90;;;;;;5035440;28;20041;-59
2022/03/02 09:41:07;;;;;;;34.13;22.13;;;6.20;99.90;;;;;;5035388;28;20265;-59
2022/03/02 09:43:35;;;;;;;35.83;22.10;;;6.10;99.90;;;;;;5047108;28;20069;-59
2022/03/02 09:46:06;;;;;;;32.80;22.20;;;6.10;99.90;;;;;;5055470;28;20033;-59
2022/03/02 09:48:40;;;;;;;34.70;22.60;;;6.10;99.90;;;;;;5055656;28;20047;-60
2022/03/02 09:51:08;;;;;;;35.20;22.73;;;6.00;99.90;;;;;;5055078;28;20056;-60
2022/03/02 09:53:35;;;;;;;32.72;21.42;;;6.00;99.90;;;;;;5043389;28;20030;-59
2022/03/02 09:56:04;;;;;;;34.42;21.15;;;5.90;99.90;;;;;;5035509;28;20064;-59
2022/03/02 09:58:30;;;;;;;33.45;21.83;;;6.00;99.90;;;;;;5017668;28;20385;-60
2022/03/02 10:00:58;;;;;;;33.25;20.67;;;6.10;99.90;;;;;;5017429;28;20116;-60
2022/03/02 10:03:26;;;;;;;32.67;19.70;;;6.20;99.90;;;;;;5045157;28;20041;-60
2022/03/02 10:05:53;;;;;;;31.60;19.80;;;6.40;99.90;;;;;;5054605;28;20139;-60
2022/03/02 10:08:23;;;;;;;31.95;20.92;;;6.60;99.90;;;;;;5054978;28;20079;-60
2022/03/02 10:10:49;;;;;;;30.83;20.58;;;6.60;99.90;;;;;;5054608;28;20418;-59
2022/03/02 10:13:16;;;;;;;31.42;20.20;;;6.70;99.90;;;;;;5045654;28;20064;-60
2022/03/02 10:15:43;;;;;;;31.83;20.67;;;6.70;99.90;;;;;;5017345;28;20053;-59
2022/03/02 10:18:12;;;;;;;30.38;19.83;;;6.80;99.90;;;;;;5034525;28;20454;-60
2022/03/02 10:20:49;;;;;;;31.58;19.98;;;7.00;99.90;;;;;;5034483;28;20056;-60
2022/03/02 10:23:25;;;;;;;32.58;20.30;;;7.30;99.90;;;;;;5043513;28;20051;-61
2022/03/02 10:26:03;;;;;;;30.60;19.75;;;7.40;99.90;;;;;;5054613;28;20041;-60
2022/03/02 10:28:49;;;;;;;29.75;20.00;;;7.70;99.90;;;;;;5054613;28;20037;-60
2022/03/02 10:31:43;;;;;;;29.33;19.30;;;7.80;99.90;;;;;;5053902;28;20513;-60
2022/03/02 10:34:25;;;;;;;29.80;20.23;;;8.00;99.90;;;;;;5037813;28;20120;-61
2022/03/02 10:37:24;;;;;;;30.90;18.55;;;8.10;99.90;;;;;;5017277;28;20045;-60
2022/03/02 10:39:54;;;;;;;29.58;19.75;;;8.30;99.90;;;;;;5034269;28;20056;-60
2022/03/02 10:42:24;;;;;;;26.58;18.40;;;8.40;99.90;;;;;;5035454;28;20136;-59
2022/03/02 10:45:18;;;;;;;27.45;17.75;;;8.60;99.90;;;;;;5054250;28;20092;-60
2022/03/02 10:47:55;;;;;;;26.40;18.02;;;8.60;99.90;;;;;;5048265;28;20048;-60
2022/03/02 10:50:29;;;;;;;28.25;18.42;;;8.70;99.90;;;;;;5033253;28;20037;-61
2022/03/02 10:52:56;;;;;;;24.35;15.45;;;8.90;99.90;;;;;;5039937;28;20044;-59
2022/03/02 10:55:22;;;;;;;27.42;16.75;;;9.00;99.90;;;;;;5054279;28;20366;-61
2022/03/02 10:57:50;;;;;;;25.98;17.65;;;9.10;99.90;;;;;;5054245;28;20048;-60
2022/03/02 11:00:19;;;;;;;24.80;16.70;;;9.20;99.90;;;;;;5053608;28;20041;-59
2022/03/02 11:02:57;;;;;;;22.40;15.15;;;9.30;99.90;;;;;;5048915;28;20474;-60
2022/03/02 11:05:24;;;;;;;23.70;15.40;;;9.30;99.90;;;;;;5033807;28;20041;-60
2022/03/02 11:07:51;;;;;;;22.85;15.65;;;9.40;99.90;;;;;;5033777;28;20423;-60
2022/03/02 11:10:21;;;;;;;24.02;14.43;;;9.60;99.90;;;;;;5033397;28;20413;-60
2022/03/02 11:12:49;;;;;;;24.00;15.70;;;9.60;99.90;;;;;;5038542;28;20124;-60
2022/03/02 11:15:16;;;;;;;23.85;15.57;;;9.70;99.90;;;;;;5053910;28;20079;-60
2022/03/02 11:17:56;;;;;;;24.23;15.07;;;9.70;99.90;;;;;;5053877;28;20041;-60
2022/03/02 11:20:24;;;;;;;23.55;13.88;;;9.70;99.90;;;;;;5050114;28;20060;-60
2022/03/02 11:23:02;;;;;;;24.23;15.15;;;9.80;99.90;;;;;;5038505;28;20037;-60
2022/03/02 11:25:45;;;;;;;22.13;14.20;;;9.90;99.90;;;;;;5053624;28;20444;-60
2022/03/02 11:28:18;;;;;;;20.30;13.93;;;10.00;99.90;;;;;;5053800;28;20369;-59
2022/03/02 11:30:58;;;;;;;23.63;14.05;;;10.00;99.90;;;;;;5053072;28;20454;-61
2022/03/02 11:33:26;;;;;;;22.73;14.05;;;10.10;99.10;;;;;;5043920;28;20072;-60
2022/03/02 11:36:00;;;;;;;23.05;14.38;;;10.00;99.20;;;;;;5033840;28;20048;-60
2022/03/02 11:38:31;;;;;;;22.58;15.23;;;10.10;99.70;;;;;;5033805;28;20048;-59
2022/03/02 11:40:57;;;;;;;24.52;14.93;;;10.10;99.90;;;;;;5033087;28;20454;-60
2022/03/02 11:43:28;;;;;;;21.77;14.65;;;10.20;99.60;;;;;;5042938;28;20391;-60
2022/03/02 11:45:58;;;;;;;19.88;13.18;;;10.30;99.80;;;;;;5053605;28;20037;-60
2022/03/02 11:48:30;;;;;;;20.77;14.95;;;10.50;98.80;;;;;;5053665;28;20132;-60
2022/03/02 11:51:18;;;;;;;22.73;14.70;;;10.50;98.90;;;;;;5053318;28;20120;-59
2022/03/02 11:53:52;;;;;;;20.95;14.20;;;10.30;99.50;;;;;;5041198;28;20037;-61
2022/03/02 11:56:20;;;;;;;21.20;14.75;;;10.30;98.90;;;;;;5016331;28;20091;-59
2022/03/02 11:59:00;;;;;;;21.13;14.05;;;10.50;98.60;;;;;;5033529;28;20119;-59
2022/03/02 12:01:37;;;;;;;21.77;14.05;;;10.30;99.00;;;;;;5035071;28;20045;-61
2022/03/02 12:04:03;;;;;;;22.83;14.77;;;10.30;99.00;;;;;;5051644;28;20423;-60
2022/03/02 12:06:39;;;;;;;22.95;14.70;;;10.40;98.30;;;;;;5057441;28;20041;-61
2022/03/02 12:09:05;;;;;;;21.85;14.38;;;10.30;98.00;;;;;;5057058;28;20102;-60
2022/03/02 12:11:38;;;;;;;21.25;14.18;;;10.30;98.70;;;;;;5057530;28;20037;-59
2022/03/02 12:14:09;;;;;;;20.35;14.00;;;10.40;98.20;;;;;;5042374;28;20099;-59
2022/03/02 12:16:47;;;;;;;23.10;14.90;;;10.40;97.70;;;;;;5036966;28;20051;-59
2022/03/02 12:19:26;;;;;;;19.67;13.77;;;10.40;97.00;;;;;;5019449;28;20057;-60
2022/03/02 12:22:05;;;;;;;21.88;14.15;;;10.30;97.20;;;;;;5037351;28;20034;-61
2022/03/02 12:24:33;;;;;;;20.98;13.40;;;10.30;96.90;;;;;;5055201;28;20369;-59
2022/03/02 12:27:08;;;;;;;21.02;13.48;;;10.40;97.00;;;;;;5057071;28;20128;-59
2022/03/02 12:29:35;;;;;;;21.20;13.75;;;10.30;97.00;;;;;;5056707;28;20060;-59
2022/03/02 12:32:10;;;;;;;21.73;14.43;;;10.40;96.20;;;;;;5056919;28;20041;-59
2022/03/02 12:34:42;;;;;;;20.17;14.10;;;10.40;97.10;;;;;;5037355;28;20116;-59
2022/03/02 12:37:08;;;;;;;20.42;13.60;;;10.40;97.40;;;;;;5036827;28;20076;-59
2022/03/02 12:39:36;;;;;;;22.90;14.68;;;10.50;97.50;;;;;;5036619;28;20124;-60